Azores A313 at Boston on Jun 25th 2017, struck taxiway light on landing

Last Update: June 26, 2017 / 15:39:09 GMT/Zulu time

Bookmark this article
Incident Facts

Date of incident
Jun 25, 2017

Classification
Incident

Flight number
S4-221

Aircraft Registration
CS-TGV

Aircraft Type
Airbus A310-300

ICAO Type Designator
A313

Airport ICAO Code
KBOS

An Azores Airlines Airbus A310-300, registration CS-TGV performing flight S4-221 from Ponta Delgada (Portugal) to Boston,MA (USA), landed on Boston's runway 27 but struck a taxiway light. Tower instructed the crew to hold position.

The FAA reported the aircraft landed and struck a taxiway light. There was no damage and no injuries.

The scheduled next sector for the aircraft, S4-280, was flown by a replacement A310-300, which was scheduled to perform S4-224. Flight S4-224 was cancelled as result.

The occurrence aircraft is still on the ground in Boston about 19 hours after landing.

Metars:
KBOS 252154Z 25007KT 10SM FEW080 OVC100 26/11 A2987 RMK AO2 SLP113 SHRA DSNT SE-SW BINOVC NW-NE T02610111 $=
KBOS 252054Z 26016G26KT 10SM SCT060 SCT080 OVC095 26/09 A2987 RMK AO2 PK WND 27026/2049 SLP115 SHRA DSNT SE-SW T02610094 55008 $=
KBOS 251954Z 26006KT 10SM FEW080 BKN110 28/10 A2986 RMK AO2 SLP112 T02780100 $=
KBOS 251854Z 26007KT 10SM SCT060 29/11 A2988 RMK AO2 SLP116 T02940106 $=
KBOS 251754Z 28009G25KT 10SM FEW060 SCT250 28/11 A2990 RMK AO2 SLP123 T02830111 10283 20222 58014 $=
Incident Facts

Date of incident
Jun 25, 2017

Classification
Incident

Flight number
S4-221

Aircraft Registration
CS-TGV

Aircraft Type
Airbus A310-300

ICAO Type Designator
A313

Airport ICAO Code
KBOS

This article is published under license from Avherald.com. © of text by Avherald.com.
Article source

You can read 2 more free articles without a subscription.

Subscribe now and continue reading without any limits!

Are you a subscriber? Login
Subscribe

Read unlimited articles and receive our daily update briefing. Gain better insights into what is happening in commercial aviation safety.

Free newsletter

Want to know more and stay ahead? Get our free weekly newsletter and join 5470 existing subscribers.

By subscribing, you accept our terms and conditions and confirm that you've read our privacy policy.

Send tip

Support AeroInside by sending a small tip amount.

Related articles

Newest articles

Subscribe today

Are you researching aviation incidents? Get access to AeroInside Insights, unlimited read access and receive the daily newsletter.

Pick your plan and subscribe

Partner

Blockaviation logo

A new way to document and demonstrate airworthiness compliance and aircraft value. Find out more.

Virtual Speech logo

ELITE Simulation Solutions is a leading global provider of Flight Simulation Training Devices, IFR training software as well as flight controls and related services. Find out more.

Get updates

Never miss an article from AeroInside. Subscribe to our free weekly newsletter and join 5470 existing subscribers.

By subscribing, you accept our terms and conditions and that you've read our privacy policy.

AeroInside Blog
Popular aircraft
Airbus A320
Boeing 737-800
Boeing 737-800 MAX
Popular airlines
American Airlines
United
Delta
Air Canada
Lufthansa
British Airways